This is the latest recevied weather packets stored in our database for station/object DL7KAW-10. If no packets are shown the sender has not sent any weather packets the latest 10 day(s).
| Time | Temp. | Humidity | Pressure | Rain* | Wind** | Luminosity | Snow |
|---|---|---|---|---|---|---|---|
| 1777459220 | 13.33° C | 53% | 1031.9 hPa | - | - | - | - |
| 1777458320 | 13.33° C | 53% | 1031.9 hPa | - | - | - | - |
| 1777457420 | 13.33° C | 51% | 1032.1 hPa | - | - | - | - |
| 1777456519 | 13.33° C | 50% | 1032.1 hPa | - | - | - | - |
| 1777455619 | 13.33° C | 38% | 1031.9 hPa | - | - | - | - |
| 1777454719 | 13.89° C | 50% | 1031.9 hPa | - | - | - | - |
| 1777453819 | 14.44° C | 48% | 1032 hPa | - | - | - | - |
| 1777452919 | 15° C | 46% | 1032 hPa | - | - | - | - |
| 1777452019 | 17.22° C | 40% | 1032 hPa | - | - | - | - |
| 1777451118 | 21.11° C | 33% | 1031.8 hPa | - | - | - | - |
| 1777450218 | 13.33° C | 48% | 1031.9 hPa | - | - | - | - |
| 1777449318 | 12.78° C | 47% | 1031.9 hPa | - | - | - | - |
| 1777448418 | 12.78° C | 51% | 1031.8 hPa | - | - | - | - |
| 1777447518 | 12.22° C | 52% | 1031.9 hPa | - | - | - | - |
| 1777446618 | 11.67° C | 52% | 1032 hPa | - | - | - | - |
| 1777445717 | 11.67° C | 50% | 1031.9 hPa | - | - | - | - |
| 1777444817 | 11.11° C | 52% | 1031.8 hPa | - | - | - | - |
| 1777443917 | 11.11° C | 52% | 1031.6 hPa | - | - | - | - |
| 1777443017 | 10.56° C | 54% | 1031.7 hPa | - | - | - | - |
| 1777442117 | 10.56° C | 56% | 1031.6 hPa | - | - | - | - |
| 1777441217 | 10.56° C | 57% | 1031.5 hPa | - | - | - | - |
| 1777440317 | 10.56° C | 56% | 1031.3 hPa | - | - | - | - |
| 1777439417 | 10.56° C | 57% | 1031.2 hPa | - | - | - | - |
| 1777438516 | 10.56° C | 57% | 1031.1 hPa | - | - | - | - |
| 1777437616 | 10° C | 58% | 1030.9 hPa | - | - | - | - |
* Rain since midnight (hover to see other rain measurements)
** Current wind speed in m/s (hover to see current wind gust speed)